sensor_id;sensor_type;location;lat;lon;timestamp;temperature;humidity
435;DHT22;204;48.942;9.256;2022-12-24T00:01:04;13.00;1.00
435;DHT22;204;48.942;9.256;2022-12-24T00:03:30;13.00;1.00
435;DHT22;204;48.942;9.256;2022-12-24T00:05:55;13.00;1.00
435;DHT22;204;48.942;9.256;2022-12-24T00:08:21;13.00;1.00
435;DHT22;204;48.942;9.256;2022-12-24T00:10:51;13.00;1.00
435;DHT22;204;48.942;9.256;2022-12-24T00:13:17;13.00;1.00
435;DHT22;204;48.942;9.256;2022-12-24T00:15:43;13.00;1.00
435;DHT22;204;48.942;9.256;2022-12-24T00:18:09;12.90;1.00
435;DHT22;204;48.942;9.256;2022-12-24T00:20:34;13.00;1.00
435;DHT22;204;48.942;9.256;2022-12-24T00:23:00;13.00;1.00
435;DHT22;204;48.942;9.256;2022-12-24T00:25:25;13.00;1.00
435;DHT22;204;48.942;9.256;2022-12-24T00:27:51;12.90;1.00
435;DHT22;204;48.942;9.256;2022-12-24T00:30:16;12.90;1.00
435;DHT22;204;48.942;9.256;2022-12-24T00:32:42;12.90;1.00
435;DHT22;204;48.942;9.256;2022-12-24T00:35:13;12.90;1.00
435;DHT22;204;48.942;9.256;2022-12-24T00:37:42;12.90;1.00
435;DHT22;204;48.942;9.256;2022-12-24T00:40:08;12.90;1.00
435;DHT22;204;48.942;9.256;2022-12-24T00:42:33;13.00;1.00
435;DHT22;204;48.942;9.256;2022-12-24T00:44:59;12.90;1.00
435;DHT22;204;48.942;9.256;2022-12-24T00:47:24;12.90;1.00
435;DHT22;204;48.942;9.256;2022-12-24T00:49:50;12.90;1.00
435;DHT22;204;48.942;9.256;2022-12-24T00:52:15;12.90;1.00
435;DHT22;204;48.942;9.256;2022-12-24T00:54:41;12.80;1.00
435;DHT22;204;48.942;9.256;2022-12-24T00:57:06;12.90;1.00
435;DHT22;204;48.942;9.256;2022-12-24T00:59:32;12.90;1.00
435;DHT22;204;48.942;9.256;2022-12-24T01:01:57;12.90;1.00
435;DHT22;204;48.942;9.256;2022-12-24T01:04:23;12.90;1.00
435;DHT22;204;48.942;9.256;2022-12-24T01:07:07;12.90;1.00
435;DHT22;204;48.942;9.256;2022-12-24T01:09:33;13.00;1.00
435;DHT22;204;48.942;9.256;2022-12-24T01:11:58;13.00;1.00
435;DHT22;204;48.942;9.256;2022-12-24T01:14:24;13.00;1.00
435;DHT22;204;48.942;9.256;2022-12-24T01:16:50;13.00;1.00
435;DHT22;204;48.942;9.256;2022-12-24T01:19:15;13.00;1.00
435;DHT22;204;48.942;9.256;2022-12-24T01:21:41;13.00;1.00
435;DHT22;204;48.942;9.256;2022-12-24T01:24:08;13.00;1.00
435;DHT22;204;48.942;9.256;2022-12-24T01:26:34;12.90;1.00
435;DHT22;204;48.942;9.256;2022-12-24T01:29:00;12.90;1.00
435;DHT22;204;48.942;9.256;2022-12-24T01:31:26;12.80;1.00
435;DHT22;204;48.942;9.256;2022-12-24T01:33:51;12.70;1.00
435;DHT22;204;48.942;9.256;2022-12-24T01:36:17;12.60;1.00
435;DHT22;204;48.942;9.256;2022-12-24T01:38:42;12.50;1.00
435;DHT22;204;48.942;9.256;2022-12-24T01:41:14;12.40;1.00
435;DHT22;204;48.942;9.256;2022-12-24T01:44:16;12.20;1.00
435;DHT22;204;48.942;9.256;2022-12-24T01:46:41;11.90;1.00
435;DHT22;204;48.942;9.256;2022-12-24T01:49:10;11.70;1.00
435;DHT22;204;48.942;9.256;2022-12-24T01:54:28;11.40;1.00
435;DHT22;204;48.942;9.256;2022-12-24T01:57:03;11.30;1.00
435;DHT22;204;48.942;9.256;2022-12-24T01:59:31;11.10;1.00
435;DHT22;204;48.942;9.256;2022-12-24T02:01:57;11.00;1.00
435;DHT22;204;48.942;9.256;2022-12-24T02:04:36;10.90;1.00
435;DHT22;204;48.942;9.256;2022-12-24T02:07:04;10.90;1.00
435;DHT22;204;48.942;9.256;2022-12-24T02:09:32;10.80;1.00
435;DHT22;204;48.942;9.256;2022-12-24T02:11:58;10.70;1.00
435;DHT22;204;48.942;9.256;2022-12-24T02:14:25;10.70;1.00
435;DHT22;204;48.942;9.256;2022-12-24T02:31:15;10.70;1.00
435;DHT22;204;48.942;9.256;2022-12-24T02:36:24;10.70;1.00
435;DHT22;204;48.942;9.256;2022-12-24T02:38:59;10.80;1.00
435;DHT22;204;48.942;9.256;2022-12-24T02:41:30;10.80;1.00
435;DHT22;204;48.942;9.256;2022-12-24T02:44:21;10.80;1.00
435;DHT22;204;48.942;9.256;2022-12-24T02:46:48;10.90;1.00
435;DHT22;204;48.942;9.256;2022-12-24T02:49:14;10.90;1.00
435;DHT22;204;48.942;9.256;2022-12-24T02:51:39;10.90;1.00
435;DHT22;204;48.942;9.256;2022-12-24T02:54:05;11.00;1.00
435;DHT22;204;48.942;9.256;2022-12-24T03:05:24;10.90;1.00
435;DHT22;204;48.942;9.256;2022-12-24T03:08:02;10.90;1.00
435;DHT22;204;48.942;9.256;2022-12-24T03:10:33;10.90;1.00
435;DHT22;204;48.942;9.256;2022-12-24T03:13:03;11.00;1.00
435;DHT22;204;48.942;9.256;2022-12-24T03:15:31;11.00;1.00
435;DHT22;204;48.942;9.256;2022-12-24T03:18:00;11.00;1.00
435;DHT22;204;48.942;9.256;2022-12-24T03:20:59;11.00;1.00
435;DHT22;204;48.942;9.256;2022-12-24T03:23:26;11.00;1.00
435;DHT22;204;48.942;9.256;2022-12-24T03:25:52;11.10;1.00
435;DHT22;204;48.942;9.256;2022-12-24T03:28:19;11.10;1.00
435;DHT22;204;48.942;9.256;2022-12-24T03:30:48;11.20;1.00
435;DHT22;204;48.942;9.256;2022-12-24T03:33:15;11.20;1.00
435;DHT22;204;48.942;9.256;2022-12-24T03:35:41;11.20;1.00
435;DHT22;204;48.942;9.256;2022-12-24T03:38:06;11.20;1.00
435;DHT22;204;48.942;9.256;2022-12-24T03:40:32;11.20;1.00
435;DHT22;204;48.942;9.256;2022-12-24T03:42:57;11.20;1.00
435;DHT22;204;48.942;9.256;2022-12-24T03:45:23;11.20;1.00
435;DHT22;204;48.942;9.256;2022-12-24T03:47:49;11.10;1.00
435;DHT22;204;48.942;9.256;2022-12-24T03:50:14;11.20;1.00
435;DHT22;204;48.942;9.256;2022-12-24T03:52:40;11.20;1.00
435;DHT22;204;48.942;9.256;2022-12-24T03:55:06;11.20;1.00
435;DHT22;204;48.942;9.256;2022-12-24T03:57:31;11.20;1.00
435;DHT22;204;48.942;9.256;2022-12-24T03:59:57;11.30;1.00
435;DHT22;204;48.942;9.256;2022-12-24T04:02:23;11.30;1.00
435;DHT22;204;48.942;9.256;2022-12-24T04:04:48;11.30;1.00
435;DHT22;204;48.942;9.256;2022-12-24T04:07:14;11.30;1.00
435;DHT22;204;48.942;9.256;2022-12-24T04:09:39;11.40;1.00
435;DHT22;204;48.942;9.256;2022-12-24T04:12:06;11.40;1.00
435;DHT22;204;48.942;9.256;2022-12-24T04:14:32;11.40;1.00
435;DHT22;204;48.942;9.256;2022-12-24T04:16:57;11.40;1.00
435;DHT22;204;48.942;9.256;2022-12-24T04:19:23;11.40;1.00
435;DHT22;204;48.942;9.256;2022-12-24T04:21:48;11.50;1.00
435;DHT22;204;48.942;9.256;2022-12-24T04:24:14;11.50;1.00
435;DHT22;204;48.942;9.256;2022-12-24T04:26:39;11.50;1.00
435;DHT22;204;48.942;9.256;2022-12-24T04:29:05;11.50;1.00
435;DHT22;204;48.942;9.256;2022-12-24T04:31:31;11.60;1.00
435;DHT22;204;48.942;9.256;2022-12-24T04:33:56;11.50;1.00
435;DHT22;204;48.942;9.256;2022-12-24T04:36:22;11.50;1.00
435;DHT22;204;48.942;9.256;2022-12-24T04:38:48;11.40;1.00
435;DHT22;204;48.942;9.256;2022-12-24T04:41:16;11.40;1.00
435;DHT22;204;48.942;9.256;2022-12-24T04:43:42;11.40;1.00
435;DHT22;204;48.942;9.256;2022-12-24T04:46:11;11.30;1.00
435;DHT22;204;48.942;9.256;2022-12-24T04:48:39;11.30;1.00
435;DHT22;204;48.942;9.256;2022-12-24T04:51:06;11.20;1.00
435;DHT22;204;48.942;9.256;2022-12-24T04:53:33;11.10;1.00
435;DHT22;204;48.942;9.256;2022-12-24T04:55:59;11.00;1.00
435;DHT22;204;48.942;9.256;2022-12-24T04:58:25;11.00;1.00
435;DHT22;204;48.942;9.256;2022-12-24T05:00:50;10.90;1.00
435;DHT22;204;48.942;9.256;2022-12-24T05:03:16;10.90;1.00
435;DHT22;204;48.942;9.256;2022-12-24T05:05:42;10.90;1.00
435;DHT22;204;48.942;9.256;2022-12-24T05:08:07;10.90;1.00
435;DHT22;204;48.942;9.256;2022-12-24T05:10:33;11.00;1.00
435;DHT22;204;48.942;9.256;2022-12-24T05:12:59;11.00;1.00
435;DHT22;204;48.942;9.256;2022-12-24T05:15:25;11.00;1.00
435;DHT22;204;48.942;9.256;2022-12-24T05:17:50;11.10;1.00
435;DHT22;204;48.942;9.256;2022-12-24T05:20:16;11.10;1.00
435;DHT22;204;48.942;9.256;2022-12-24T05:22:42;11.20;1.00
435;DHT22;204;48.942;9.256;2022-12-24T05:25:35;11.20;1.00
435;DHT22;204;48.942;9.256;2022-12-24T05:28:19;11.30;1.00
435;DHT22;204;48.942;9.256;2022-12-24T05:30:45;11.30;1.00
435;DHT22;204;48.942;9.256;2022-12-24T05:33:10;11.30;1.00
435;DHT22;204;48.942;9.256;2022-12-24T05:35:36;11.30;1.00
435;DHT22;204;48.942;9.256;2022-12-24T05:38:01;11.30;1.00
435;DHT22;204;48.942;9.256;2022-12-24T05:40:27;11.30;1.00
435;DHT22;204;48.942;9.256;2022-12-24T05:42:53;11.20;1.00
435;DHT22;204;48.942;9.256;2022-12-24T05:45:18;11.10;1.00
435;DHT22;204;48.942;9.256;2022-12-24T05:47:44;11.10;1.00
435;DHT22;204;48.942;9.256;2022-12-24T05:50:10;11.10;1.00
435;DHT22;204;48.942;9.256;2022-12-24T05:52:35;11.10;1.00
435;DHT22;204;48.942;9.256;2022-12-24T05:55:01;11.00;1.00
435;DHT22;204;48.942;9.256;2022-12-24T05:57:26;11.00;1.00
435;DHT22;204;48.942;9.256;2022-12-24T05:59:52;11.00;1.00
435;DHT22;204;48.942;9.256;2022-12-24T06:02:17;10.90;1.00
435;DHT22;204;48.942;9.256;2022-12-24T06:04:43;10.90;1.00
435;DHT22;204;48.942;9.256;2022-12-24T06:07:09;10.80;1.00
435;DHT22;204;48.942;9.256;2022-12-24T06:09:34;10.80;1.00
435;DHT22;204;48.942;9.256;2022-12-24T06:12:00;10.70;1.00
435;DHT22;204;48.942;9.256;2022-12-24T06:14:25;10.70;1.00
435;DHT22;204;48.942;9.256;2022-12-24T06:16:51;10.60;1.00
435;DHT22;204;48.942;9.256;2022-12-24T06:19:16;10.60;1.00
435;DHT22;204;48.942;9.256;2022-12-24T06:21:42;10.50;1.00
435;DHT22;204;48.942;9.256;2022-12-24T06:24:08;10.40;1.00
435;DHT22;204;48.942;9.256;2022-12-24T06:26:33;10.40;1.00
435;DHT22;204;48.942;9.256;2022-12-24T06:28:59;10.30;1.00
435;DHT22;204;48.942;9.256;2022-12-24T06:31:25;10.30;1.00
435;DHT22;204;48.942;9.256;2022-12-24T06:33:51;10.20;1.00
435;DHT22;204;48.942;9.256;2022-12-24T06:36:20;10.20;1.00
435;DHT22;204;48.942;9.256;2022-12-24T06:38:47;10.20;1.00
435;DHT22;204;48.942;9.256;2022-12-24T06:41:13;10.10;1.00
435;DHT22;204;48.942;9.256;2022-12-24T06:43:42;10.10;1.00
435;DHT22;204;48.942;9.256;2022-12-24T06:46:08;10.00;1.00
435;DHT22;204;48.942;9.256;2022-12-24T06:48:34;10.00;1.00
435;DHT22;204;48.942;9.256;2022-12-24T06:51:02;9.90;1.00
435;DHT22;204;48.942;9.256;2022-12-24T06:53:29;9.90;1.00
435;DHT22;204;48.942;9.256;2022-12-24T06:56:05;9.80;1.00
435;DHT22;204;48.942;9.256;2022-12-24T06:58:32;9.80;1.00
435;DHT22;204;48.942;9.256;2022-12-24T07:01:03;9.70;1.00
435;DHT22;204;48.942;9.256;2022-12-24T07:03:30;9.70;1.00
435;DHT22;204;48.942;9.256;2022-12-24T07:05:56;9.60;1.00
435;DHT22;204;48.942;9.256;2022-12-24T07:08:22;9.60;1.00
435;DHT22;204;48.942;9.256;2022-12-24T07:10:48;9.50;1.00
435;DHT22;204;48.942;9.256;2022-12-24T07:13:15;9.50;1.00
435;DHT22;204;48.942;9.256;2022-12-24T07:15:40;9.50;1.00
435;DHT22;204;48.942;9.256;2022-12-24T07:18:06;9.50;1.00
435;DHT22;204;48.942;9.256;2022-12-24T07:20:32;9.60;1.00
435;DHT22;204;48.942;9.256;2022-12-24T07:22:57;9.60;1.00
435;DHT22;204;48.942;9.256;2022-12-24T07:25:23;9.60;1.00
435;DHT22;204;48.942;9.256;2022-12-24T07:27:49;9.60;1.00
435;DHT22;204;48.942;9.256;2022-12-24T07:30:14;9.70;1.00
435;DHT22;204;48.942;9.256;2022-12-24T07:32:40;9.70;1.00
435;DHT22;204;48.942;9.256;2022-12-24T07:35:06;9.80;1.00
435;DHT22;204;48.942;9.256;2022-12-24T07:37:32;9.80;1.00
435;DHT22;204;48.942;9.256;2022-12-24T07:39:57;9.90;1.00
435;DHT22;204;48.942;9.256;2022-12-24T07:42:23;10.00;1.00
435;DHT22;204;48.942;9.256;2022-12-24T07:44:49;10.00;1.00
435;DHT22;204;48.942;9.256;2022-12-24T07:47:14;10.00;1.00
435;DHT22;204;48.942;9.256;2022-12-24T07:49:40;10.00;1.00
435;DHT22;204;48.942;9.256;2022-12-24T07:52:06;10.10;1.00
435;DHT22;204;48.942;9.256;2022-12-24T07:54:31;10.20;1.00
435;DHT22;204;48.942;9.256;2022-12-24T07:56:57;10.20;1.00
435;DHT22;204;48.942;9.256;2022-12-24T07:59:23;10.30;1.00
435;DHT22;204;48.942;9.256;2022-12-24T08:01:48;10.40;1.00
435;DHT22;204;48.942;9.256;2022-12-24T08:04:14;10.30;1.00
435;DHT22;204;48.942;9.256;2022-12-24T08:06:40;10.40;1.00
435;DHT22;204;48.942;9.256;2022-12-24T08:09:05;10.40;1.00
435;DHT22;204;48.942;9.256;2022-12-24T08:11:31;10.40;1.00
435;DHT22;204;48.942;9.256;2022-12-24T08:13:56;10.30;1.00
435;DHT22;204;48.942;9.256;2022-12-24T08:16:22;10.30;1.00
435;DHT22;204;48.942;9.256;2022-12-24T08:18:48;10.40;1.00
435;DHT22;204;48.942;9.256;2022-12-24T08:21:13;10.40;1.00
435;DHT22;204;48.942;9.256;2022-12-24T08:23:39;10.50;1.00
435;DHT22;204;48.942;9.256;2022-12-24T08:26:09;10.50;1.00
435;DHT22;204;48.942;9.256;2022-12-24T08:28:35;10.60;1.00
435;DHT22;204;48.942;9.256;2022-12-24T08:31:01;10.70;1.00
435;DHT22;204;48.942;9.256;2022-12-24T08:33:27;10.70;1.00
435;DHT22;204;48.942;9.256;2022-12-24T08:35:54;10.70;1.00
435;DHT22;204;48.942;9.256;2022-12-24T08:38:21;10.80;1.00
435;DHT22;204;48.942;9.256;2022-12-24T08:40:47;10.80;1.00
435;DHT22;204;48.942;9.256;2022-12-24T08:43:15;10.80;1.00
435;DHT22;204;48.942;9.256;2022-12-24T08:45:41;10.90;1.00
435;DHT22;204;48.942;9.256;2022-12-24T08:48:08;11.00;1.00
435;DHT22;204;48.942;9.256;2022-12-24T08:50:34;11.00;1.00
435;DHT22;204;48.942;9.256;2022-12-24T08:53:00;11.00;1.00
435;DHT22;204;48.942;9.256;2022-12-24T08:55:26;11.00;1.00
435;DHT22;204;48.942;9.256;2022-12-24T08:57:51;11.00;1.00
435;DHT22;204;48.942;9.256;2022-12-24T09:00:17;10.90;1.00
435;DHT22;204;48.942;9.256;2022-12-24T09:02:43;10.90;1.00
435;DHT22;204;48.942;9.256;2022-12-24T09:05:09;10.90;1.00
435;DHT22;204;48.942;9.256;2022-12-24T09:07:35;10.90;1.00
435;DHT22;204;48.942;9.256;2022-12-24T09:10:00;10.90;1.00
435;DHT22;204;48.942;9.256;2022-12-24T09:12:26;11.00;1.00
435;DHT22;204;48.942;9.256;2022-12-24T09:14:52;11.00;1.00
435;DHT22;204;48.942;9.256;2022-12-24T09:17:19;11.00;1.00
435;DHT22;204;48.942;9.256;2022-12-24T09:19:45;11.00;1.00
435;DHT22;204;48.942;9.256;2022-12-24T09:22:11;11.00;1.00
435;DHT22;204;48.942;9.256;2022-12-24T09:24:37;10.90;1.00
435;DHT22;204;48.942;9.256;2022-12-24T09:27:02;10.80;1.00
435;DHT22;204;48.942;9.256;2022-12-24T09:29:29;10.80;1.00
435;DHT22;204;48.942;9.256;2022-12-24T09:31:54;10.80;1.00
435;DHT22;204;48.942;9.256;2022-12-24T09:34:24;10.90;1.00
435;DHT22;204;48.942;9.256;2022-12-24T09:36:49;10.90;1.00
435;DHT22;204;48.942;9.256;2022-12-24T09:39:16;11.00;1.00
435;DHT22;204;48.942;9.256;2022-12-24T09:44:54;11.30;1.00
435;DHT22;204;48.942;9.256;2022-12-24T09:47:50;11.40;1.00
435;DHT22;204;48.942;9.256;2022-12-24T09:52:52;11.60;1.00
435;DHT22;204;48.942;9.256;2022-12-24T09:55:32;11.70;1.00
435;DHT22;204;48.942;9.256;2022-12-24T09:58:00;11.90;1.00
435;DHT22;204;48.942;9.256;2022-12-24T10:00:32;12.00;1.00
435;DHT22;204;48.942;9.256;2022-12-24T10:03:00;12.00;1.00
435;DHT22;204;48.942;9.256;2022-12-24T10:10:45;12.50;1.00
435;DHT22;204;48.942;9.256;2022-12-24T10:13:57;12.80;1.00
435;DHT22;204;48.942;9.256;2022-12-24T10:16:23;13.10;1.00
435;DHT22;204;48.942;9.256;2022-12-24T10:19:16;13.40;1.00
435;DHT22;204;48.942;9.256;2022-12-24T10:24:51;14.00;1.00
435;DHT22;204;48.942;9.256;2022-12-24T10:27:22;14.20;1.00
435;DHT22;204;48.942;9.256;2022-12-24T10:29:54;14.40;1.00
435;DHT22;204;48.942;9.256;2022-12-24T10:32:23;14.50;1.00
435;DHT22;204;48.942;9.256;2022-12-24T10:35:03;14.60;1.00
435;DHT22;204;48.942;9.256;2022-12-24T10:37:30;14.60;1.00
435;DHT22;204;48.942;9.256;2022-12-24T10:39:58;14.60;1.00
435;DHT22;204;48.942;9.256;2022-12-24T10:42:31;14.40;1.00
435;DHT22;204;48.942;9.256;2022-12-24T10:45:03;14.10;1.00
435;DHT22;204;48.942;9.256;2022-12-24T10:47:32;14.00;1.00
435;DHT22;204;48.942;9.256;2022-12-24T10:50:16;13.90;1.00
435;DHT22;204;48.942;9.256;2022-12-24T10:52:46;13.90;1.00
435;DHT22;204;48.942;9.256;2022-12-24T10:57:45;13.70;1.00
435;DHT22;204;48.942;9.256;2022-12-24T11:00:19;13.70;1.00
435;DHT22;204;48.942;9.256;2022-12-24T11:02:47;13.60;1.00
435;DHT22;204;48.942;9.256;2022-12-24T11:05:34;13.60;1.00
435;DHT22;204;48.942;9.256;2022-12-24T11:08:05;13.70;1.00
435;DHT22;204;48.942;9.256;2022-12-24T11:10:34;13.80;1.00
435;DHT22;204;48.942;9.256;2022-12-24T11:13:01;13.90;1.00
435;DHT22;204;48.942;9.256;2022-12-24T11:15:31;14.00;1.00
435;DHT22;204;48.942;9.256;2022-12-24T11:18:05;14.00;1.00
435;DHT22;204;48.942;9.256;2022-12-24T11:20:37;13.90;1.00
435;DHT22;204;48.942;9.256;2022-12-24T11:23:03;13.80;1.00
435;DHT22;204;48.942;9.256;2022-12-24T11:25:33;13.90;1.00
435;DHT22;204;48.942;9.256;2022-12-24T11:28:18;14.00;1.00
435;DHT22;204;48.942;9.256;2022-12-24T11:31:00;14.20;1.00
435;DHT22;204;48.942;9.256;2022-12-24T11:33:26;14.30;1.00
435;DHT22;204;48.942;9.256;2022-12-24T11:35:56;14.30;1.00
435;DHT22;204;48.942;9.256;2022-12-24T11:38:26;14.30;1.00
435;DHT22;204;48.942;9.256;2022-12-24T11:41:09;14.30;1.00
435;DHT22;204;48.942;9.256;2022-12-24T11:43:46;14.10;1.00
435;DHT22;204;48.942;9.256;2022-12-24T11:46:36;14.00;1.00
435;DHT22;204;48.942;9.256;2022-12-24T11:51:38;13.60;1.00
435;DHT22;204;48.942;9.256;2022-12-24T11:54:15;13.40;1.00
435;DHT22;204;48.942;9.256;2022-12-24T11:56:46;13.30;1.00
435;DHT22;204;48.942;9.256;2022-12-24T11:59:32;13.20;1.00
435;DHT22;204;48.942;9.256;2022-12-24T12:04:38;13.00;1.00
435;DHT22;204;48.942;9.256;2022-12-24T12:07:22;13.00;1.00
435;DHT22;204;48.942;9.256;2022-12-24T12:09:58;12.90;1.00
435;DHT22;204;48.942;9.256;2022-12-24T12:12:28;12.80;1.00
435;DHT22;204;48.942;9.256;2022-12-24T12:15:03;12.80;1.00
435;DHT22;204;48.942;9.256;2022-12-24T12:17:49;12.60;1.00
435;DHT22;204;48.942;9.256;2022-12-24T12:20:23;12.60;1.00
435;DHT22;204;48.942;9.256;2022-12-24T12:25:53;12.50;1.00
435;DHT22;204;48.942;9.256;2022-12-24T12:39:15;12.40;1.00
435;DHT22;204;48.942;9.256;2022-12-24T12:58:07;13.30;1.00
435;DHT22;204;48.942;9.256;2022-12-24T13:00:37;13.40;1.00
435;DHT22;204;48.942;9.256;2022-12-24T13:14:19;13.90;1.00
435;DHT22;204;48.942;9.256;2022-12-24T13:17:07;13.90;1.00
435;DHT22;204;48.942;9.256;2022-12-24T13:22:57;14.00;1.00
435;DHT22;204;48.942;9.256;2022-12-24T13:25:47;14.00;1.00
435;DHT22;204;48.942;9.256;2022-12-24T13:30:53;13.90;1.00
435;DHT22;204;48.942;9.256;2022-12-24T13:36:13;13.70;1.00
435;DHT22;204;48.942;9.256;2022-12-24T13:38:50;13.50;1.00
435;DHT22;204;48.942;9.256;2022-12-24T13:49:51;12.70;1.00
435;DHT22;204;48.942;9.256;2022-12-24T13:52:22;12.50;1.00
435;DHT22;204;48.942;9.256;2022-12-24T13:57:28;12.40;1.00
435;DHT22;204;48.942;9.256;2022-12-24T14:00:03;12.40;1.00
435;DHT22;204;48.942;9.256;2022-12-24T14:02:35;12.40;1.00
435;DHT22;204;48.942;9.256;2022-12-24T14:05:07;12.50;1.00
435;DHT22;204;48.942;9.256;2022-12-24T14:07:34;12.50;1.00
435;DHT22;204;48.942;9.256;2022-12-24T14:10:00;12.50;1.00
435;DHT22;204;48.942;9.256;2022-12-24T14:12:53;12.40;1.00
435;DHT22;204;48.942;9.256;2022-12-24T14:18:22;12.20;1.00
435;DHT22;204;48.942;9.256;2022-12-24T14:20:50;12.10;1.00
435;DHT22;204;48.942;9.256;2022-12-24T14:25:53;11.80;1.00
435;DHT22;204;48.942;9.256;2022-12-24T14:28:24;11.70;1.00
435;DHT22;204;48.942;9.256;2022-12-24T14:31:00;11.70;1.00
435;DHT22;204;48.942;9.256;2022-12-24T14:33:31;11.60;1.00
435;DHT22;204;48.942;9.256;2022-12-24T14:35:57;11.50;1.00
435;DHT22;204;48.942;9.256;2022-12-24T14:38:23;11.40;1.00
435;DHT22;204;48.942;9.256;2022-12-24T14:43:52;11.30;1.00
435;DHT22;204;48.942;9.256;2022-12-24T14:46:53;11.20;1.00
435;DHT22;204;48.942;9.256;2022-12-24T14:52:14;11.00;1.00
435;DHT22;204;48.942;9.256;2022-12-24T14:54:43;10.90;1.00
435;DHT22;204;48.942;9.256;2022-12-24T15:05:18;10.60;1.00
435;DHT22;204;48.942;9.256;2022-12-24T15:08:00;10.60;1.00
435;DHT22;204;48.942;9.256;2022-12-24T15:12:54;10.50;1.00
435;DHT22;204;48.942;9.256;2022-12-24T15:15:21;10.50;1.00
435;DHT22;204;48.942;9.256;2022-12-24T15:17:47;10.50;1.00
435;DHT22;204;48.942;9.256;2022-12-24T15:20:16;10.60;1.00
435;DHT22;204;48.942;9.256;2022-12-24T15:22:44;10.50;1.00
435;DHT22;204;48.942;9.256;2022-12-24T15:25:20;10.50;1.00
435;DHT22;204;48.942;9.256;2022-12-24T15:27:46;10.50;1.00
435;DHT22;204;48.942;9.256;2022-12-24T15:30:17;10.50;1.00
435;DHT22;204;48.942;9.256;2022-12-24T15:32:43;10.40;1.00
435;DHT22;204;48.942;9.256;2022-12-24T15:35:29;10.30;1.00
435;DHT22;204;48.942;9.256;2022-12-24T15:37:57;10.30;1.00
435;DHT22;204;48.942;9.256;2022-12-24T15:40:23;10.30;1.00
435;DHT22;204;48.942;9.256;2022-12-24T15:42:50;10.20;1.00
435;DHT22;204;48.942;9.256;2022-12-24T15:45:17;10.20;1.00
435;DHT22;204;48.942;9.256;2022-12-24T15:47:48;10.20;1.00
435;DHT22;204;48.942;9.256;2022-12-24T15:50:17;10.30;1.00
435;DHT22;204;48.942;9.256;2022-12-24T15:52:44;10.30;1.00
435;DHT22;204;48.942;9.256;2022-12-24T15:55:43;10.30;1.00
435;DHT22;204;48.942;9.256;2022-12-24T15:58:22;10.30;1.00
435;DHT22;204;48.942;9.256;2022-12-24T16:03:36;10.30;1.00
435;DHT22;204;48.942;9.256;2022-12-24T16:08:33;10.30;1.00
435;DHT22;204;48.942;9.256;2022-12-24T16:16:20;10.30;1.00
435;DHT22;204;48.942;9.256;2022-12-24T16:18:53;10.30;1.00
435;DHT22;204;48.942;9.256;2022-12-24T16:21:36;10.30;1.00
435;DHT22;204;48.942;9.256;2022-12-24T16:26:42;10.30;1.00
435;DHT22;204;48.942;9.256;2022-12-24T16:29:10;10.20;1.00
435;DHT22;204;48.942;9.256;2022-12-24T16:31:41;10.20;1.00
435;DHT22;204;48.942;9.256;2022-12-24T16:34:13;10.20;1.00
435;DHT22;204;48.942;9.256;2022-12-24T16:36:40;10.20;1.00
435;DHT22;204;48.942;9.256;2022-12-24T16:39:13;10.20;1.00
435;DHT22;204;48.942;9.256;2022-12-24T16:41:52;10.10;1.00
435;DHT22;204;48.942;9.256;2022-12-24T16:44:37;10.10;1.00
435;DHT22;204;48.942;9.256;2022-12-24T16:47:05;10.10;1.00
435;DHT22;204;48.942;9.256;2022-12-24T16:49:31;10.10;1.00
435;DHT22;204;48.942;9.256;2022-12-24T16:52:00;10.10;1.00
435;DHT22;204;48.942;9.256;2022-12-24T16:54:26;10.10;1.00
435;DHT22;204;48.942;9.256;2022-12-24T16:56:52;10.10;1.00
435;DHT22;204;48.942;9.256;2022-12-24T16:59:22;10.20;1.00
435;DHT22;204;48.942;9.256;2022-12-24T17:01:48;10.20;1.00
435;DHT22;204;48.942;9.256;2022-12-24T17:04:14;10.20;1.00
435;DHT22;204;48.942;9.256;2022-12-24T17:06:40;10.20;1.00
435;DHT22;204;48.942;9.256;2022-12-24T17:09:10;10.20;1.00
435;DHT22;204;48.942;9.256;2022-12-24T17:11:36;10.20;1.00
435;DHT22;204;48.942;9.256;2022-12-24T17:14:03;10.20;1.00
435;DHT22;204;48.942;9.256;2022-12-24T17:16:29;10.20;1.00
435;DHT22;204;48.942;9.256;2022-12-24T17:18:55;10.20;1.00
435;DHT22;204;48.942;9.256;2022-12-24T17:21:20;10.20;1.00
435;DHT22;204;48.942;9.256;2022-12-24T17:23:46;10.20;1.00
435;DHT22;204;48.942;9.256;2022-12-24T17:26:13;10.10;1.00
435;DHT22;204;48.942;9.256;2022-12-24T17:28:40;10.10;1.00
435;DHT22;204;48.942;9.256;2022-12-24T17:31:10;10.20;1.00
435;DHT22;204;48.942;9.256;2022-12-24T17:33:36;10.20;1.00
435;DHT22;204;48.942;9.256;2022-12-24T17:36:01;10.20;1.00
435;DHT22;204;48.942;9.256;2022-12-24T17:38:27;10.20;1.00
435;DHT22;204;48.942;9.256;2022-12-24T17:41:02;10.20;1.00
435;DHT22;204;48.942;9.256;2022-12-24T17:43:35;10.20;1.00
435;DHT22;204;48.942;9.256;2022-12-24T17:46:05;10.20;1.00
435;DHT22;204;48.942;9.256;2022-12-24T17:48:31;10.20;1.00
435;DHT22;204;48.942;9.256;2022-12-24T17:50:57;10.20;1.00
435;DHT22;204;48.942;9.256;2022-12-24T17:53:22;10.20;1.00
435;DHT22;204;48.942;9.256;2022-12-24T17:55:48;10.30;1.00
435;DHT22;204;48.942;9.256;2022-12-24T17:58:14;10.30;1.00
435;DHT22;204;48.942;9.256;2022-12-24T18:00:40;10.30;1.00
435;DHT22;204;48.942;9.256;2022-12-24T18:03:06;10.30;1.00
435;DHT22;204;48.942;9.256;2022-12-24T18:05:34;10.30;1.00
435;DHT22;204;48.942;9.256;2022-12-24T18:08:00;10.40;1.00
435;DHT22;204;48.942;9.256;2022-12-24T18:10:26;10.40;1.00
435;DHT22;204;48.942;9.256;2022-12-24T18:12:52;10.40;1.00
435;DHT22;204;48.942;9.256;2022-12-24T18:15:19;10.40;1.00
435;DHT22;204;48.942;9.256;2022-12-24T18:17:52;10.40;1.00
435;DHT22;204;48.942;9.256;2022-12-24T18:20:19;10.50;1.00
435;DHT22;204;48.942;9.256;2022-12-24T18:22:45;10.40;1.00
435;DHT22;204;48.942;9.256;2022-12-24T18:25:10;10.40;1.00
435;DHT22;204;48.942;9.256;2022-12-24T18:27:36;10.30;1.00
435;DHT22;204;48.942;9.256;2022-12-24T18:30:02;10.30;1.00
435;DHT22;204;48.942;9.256;2022-12-24T18:32:28;10.30;1.00
435;DHT22;204;48.942;9.256;2022-12-24T18:34:53;10.20;1.00
435;DHT22;204;48.942;9.256;2022-12-24T18:37:19;10.20;1.00
435;DHT22;204;48.942;9.256;2022-12-24T18:39:45;10.10;1.00
435;DHT22;204;48.942;9.256;2022-12-24T18:42:10;10.10;1.00
435;DHT22;204;48.942;9.256;2022-12-24T18:44:40;10.20;1.00
435;DHT22;204;48.942;9.256;2022-12-24T18:47:05;10.10;1.00
435;DHT22;204;48.942;9.256;2022-12-24T18:49:31;10.10;1.00
435;DHT22;204;48.942;9.256;2022-12-24T18:51:56;10.10;1.00
435;DHT22;204;48.942;9.256;2022-12-24T18:54:22;10.20;1.00
435;DHT22;204;48.942;9.256;2022-12-24T18:56:50;10.20;1.00
435;DHT22;204;48.942;9.256;2022-12-24T18:59:16;10.20;1.00
435;DHT22;204;48.942;9.256;2022-12-24T19:01:42;10.20;1.00
435;DHT22;204;48.942;9.256;2022-12-24T19:04:07;10.20;1.00
435;DHT22;204;48.942;9.256;2022-12-24T19:06:35;10.20;1.00
435;DHT22;204;48.942;9.256;2022-12-24T19:09:01;10.20;1.00
435;DHT22;204;48.942;9.256;2022-12-24T19:11:29;10.20;1.00
435;DHT22;204;48.942;9.256;2022-12-24T19:13:56;10.20;1.00
435;DHT22;204;48.942;9.256;2022-12-24T19:16:22;10.30;1.00
435;DHT22;204;48.942;9.256;2022-12-24T19:18:48;10.30;1.00
435;DHT22;204;48.942;9.256;2022-12-24T19:21:14;10.20;1.00
435;DHT22;204;48.942;9.256;2022-12-24T19:23:41;10.20;1.00
435;DHT22;204;48.942;9.256;2022-12-24T19:26:09;10.20;1.00
435;DHT22;204;48.942;9.256;2022-12-24T19:28:35;10.20;1.00